sensor_id;sensor_type;location;lat;lon;timestamp;temperature;humidity
7000;DHT22;3540;53.242;10.408;2023-07-02T00:01:03;15.00;99.90
7000;DHT22;3540;53.242;10.408;2023-07-02T00:03:29;15.00;99.90
7000;DHT22;3540;53.242;10.408;2023-07-02T00:05:55;14.90;99.90
7000;DHT22;3540;53.242;10.408;2023-07-02T00:08:22;14.90;99.90
7000;DHT22;3540;53.242;10.408;2023-07-02T00:10:48;14.90;99.90
7000;DHT22;3540;53.242;10.408;2023-07-02T00:13:14;14.90;99.90
7000;DHT22;3540;53.242;10.408;2023-07-02T00:15:40;14.90;99.90
7000;DHT22;3540;53.242;10.408;2023-07-02T00:18:06;14.90;99.90
7000;DHT22;3540;53.242;10.408;2023-07-02T00:20:33;14.90;99.90
7000;DHT22;3540;53.242;10.408;2023-07-02T00:23:06;14.80;99.90
7000;DHT22;3540;53.242;10.408;2023-07-02T00:25:34;14.80;99.90
7000;DHT22;3540;53.242;10.408;2023-07-02T00:28:00;14.80;99.90
7000;DHT22;3540;53.242;10.408;2023-07-02T00:30:28;14.80;99.90
7000;DHT22;3540;53.242;10.408;2023-07-02T00:32:54;14.80;99.90
7000;DHT22;3540;53.242;10.408;2023-07-02T00:35:19;14.80;99.90
7000;DHT22;3540;53.242;10.408;2023-07-02T00:37:45;14.80;99.90
7000;DHT22;3540;53.242;10.408;2023-07-02T00:40:11;14.70;99.90
7000;DHT22;3540;53.242;10.408;2023-07-02T00:42:37;14.70;99.90
7000;DHT22;3540;53.242;10.408;2023-07-02T00:45:03;14.70;99.90
7000;DHT22;3540;53.242;10.408;2023-07-02T00:47:38;14.70;99.90
7000;DHT22;3540;53.242;10.408;2023-07-02T00:50:04;14.70;99.90
7000;DHT22;3540;53.242;10.408;2023-07-02T00:52:30;14.70;99.90
7000;DHT22;3540;53.242;10.408;2023-07-02T00:54:55;14.60;99.90
7000;DHT22;3540;53.242;10.408;2023-07-02T00:57:21;14.70;99.90
7000;DHT22;3540;53.242;10.408;2023-07-02T00:59:47;14.70;99.90
7000;DHT22;3540;53.242;10.408;2023-07-02T01:02:12;14.70;99.90
7000;DHT22;3540;53.242;10.408;2023-07-02T01:04:39;14.70;99.90
7000;DHT22;3540;53.242;10.408;2023-07-02T01:07:05;14.70;99.90
7000;DHT22;3540;53.242;10.408;2023-07-02T01:09:36;14.70;99.90
7000;DHT22;3540;53.242;10.408;2023-07-02T01:12:04;14.70;99.90
7000;DHT22;3540;53.242;10.408;2023-07-02T01:14:44;14.80;99.90
7000;DHT22;3540;53.242;10.408;2023-07-02T01:17:12;14.80;99.90
7000;DHT22;3540;53.242;10.408;2023-07-02T01:22:28;14.80;99.90
7000;DHT22;3540;53.242;10.408;2023-07-02T01:24:55;14.80;99.90
7000;DHT22;3540;53.242;10.408;2023-07-02T01:27:21;14.80;99.90
7000;DHT22;3540;53.242;10.408;2023-07-02T01:29:50;14.80;99.90
7000;DHT22;3540;53.242;10.408;2023-07-02T01:32:16;14.70;99.90
7000;DHT22;3540;53.242;10.408;2023-07-02T01:34:41;14.70;99.90
7000;DHT22;3540;53.242;10.408;2023-07-02T01:37:14;14.60;99.90
7000;DHT22;3540;53.242;10.408;2023-07-02T01:39:40;14.50;99.90
7000;DHT22;3540;53.242;10.408;2023-07-02T01:42:10;14.50;99.90
7000;DHT22;3540;53.242;10.408;2023-07-02T01:44:37;14.50;99.90
7000;DHT22;3540;53.242;10.408;2023-07-02T01:47:03;14.50;99.90
7000;DHT22;3540;53.242;10.408;2023-07-02T01:49:29;14.40;99.90
7000;DHT22;3540;53.242;10.408;2023-07-02T01:51:56;14.40;99.90
7000;DHT22;3540;53.242;10.408;2023-07-02T01:54:23;14.40;99.90
7000;DHT22;3540;53.242;10.408;2023-07-02T01:56:49;14.40;99.90
7000;DHT22;3540;53.242;10.408;2023-07-02T01:59:15;14.30;99.90
7000;DHT22;3540;53.242;10.408;2023-07-02T02:01:42;14.30;99.90
7000;DHT22;3540;53.242;10.408;2023-07-02T02:04:09;14.30;99.90
7000;DHT22;3540;53.242;10.408;2023-07-02T02:06:36;14.30;99.90
7000;DHT22;3540;53.242;10.408;2023-07-02T02:09:02;14.30;99.90
7000;DHT22;3540;53.242;10.408;2023-07-02T02:11:31;14.30;99.90
7000;DHT22;3540;53.242;10.408;2023-07-02T02:13:57;14.30;99.90
7000;DHT22;3540;53.242;10.408;2023-07-02T02:16:23;14.30;99.90
7000;DHT22;3540;53.242;10.408;2023-07-02T02:18:49;14.30;99.90
7000;DHT22;3540;53.242;10.408;2023-07-02T02:21:17;14.30;99.90
7000;DHT22;3540;53.242;10.408;2023-07-02T02:23:43;14.30;99.90
7000;DHT22;3540;53.242;10.408;2023-07-02T02:26:09;14.30;99.90
7000;DHT22;3540;53.242;10.408;2023-07-02T02:28:36;14.30;99.90
7000;DHT22;3540;53.242;10.408;2023-07-02T02:31:01;14.30;99.90
7000;DHT22;3540;53.242;10.408;2023-07-02T02:33:28;14.40;99.90
7000;DHT22;3540;53.242;10.408;2023-07-02T02:35:53;14.40;99.90
7000;DHT22;3540;53.242;10.408;2023-07-02T02:38:19;14.40;99.90
7000;DHT22;3540;53.242;10.408;2023-07-02T02:40:45;14.40;99.90
7000;DHT22;3540;53.242;10.408;2023-07-02T02:43:11;14.40;99.90
7000;DHT22;3540;53.242;10.408;2023-07-02T02:45:36;14.50;99.90
7000;DHT22;3540;53.242;10.408;2023-07-02T02:48:02;14.50;99.90
7000;DHT22;3540;53.242;10.408;2023-07-02T02:50:27;14.60;99.90
7000;DHT22;3540;53.242;10.408;2023-07-02T02:52:53;14.60;99.90
7000;DHT22;3540;53.242;10.408;2023-07-02T02:55:19;14.70;99.90
7000;DHT22;3540;53.242;10.408;2023-07-02T02:57:44;14.70;99.90
7000;DHT22;3540;53.242;10.408;2023-07-02T03:00:10;14.70;99.90
7000;DHT22;3540;53.242;10.408;2023-07-02T03:02:37;14.70;99.90
7000;DHT22;3540;53.242;10.408;2023-07-02T03:05:03;14.70;99.90
7000;DHT22;3540;53.242;10.408;2023-07-02T03:07:29;14.70;99.90
7000;DHT22;3540;53.242;10.408;2023-07-02T03:09:55;14.80;99.90
7000;DHT22;3540;53.242;10.408;2023-07-02T03:12:21;14.80;99.90
7000;DHT22;3540;53.242;10.408;2023-07-02T03:14:47;14.80;99.90
7000;DHT22;3540;53.242;10.408;2023-07-02T03:17:17;14.80;99.90
7000;DHT22;3540;53.242;10.408;2023-07-02T03:19:42;14.80;99.90
7000;DHT22;3540;53.242;10.408;2023-07-02T03:22:08;14.80;99.90
7000;DHT22;3540;53.242;10.408;2023-07-02T03:24:33;14.80;99.90
7000;DHT22;3540;53.242;10.408;2023-07-02T03:26:59;14.70;99.90
7000;DHT22;3540;53.242;10.408;2023-07-02T03:29:25;14.80;99.90
7000;DHT22;3540;53.242;10.408;2023-07-02T03:31:50;14.80;99.90
7000;DHT22;3540;53.242;10.408;2023-07-02T03:34:16;14.80;99.90
7000;DHT22;3540;53.242;10.408;2023-07-02T03:36:42;14.80;99.90
7000;DHT22;3540;53.242;10.408;2023-07-02T03:39:09;14.80;99.90
7000;DHT22;3540;53.242;10.408;2023-07-02T03:41:34;14.70;99.90
7000;DHT22;3540;53.242;10.408;2023-07-02T03:44:00;14.70;99.90
7000;DHT22;3540;53.242;10.408;2023-07-02T03:46:26;14.70;99.90
7000;DHT22;3540;53.242;10.408;2023-07-02T03:48:51;14.70;99.90
7000;DHT22;3540;53.242;10.408;2023-07-02T03:51:17;14.70;99.90
7000;DHT22;3540;53.242;10.408;2023-07-02T03:53:43;14.70;99.90
7000;DHT22;3540;53.242;10.408;2023-07-02T03:56:08;14.70;99.90
7000;DHT22;3540;53.242;10.408;2023-07-02T03:58:34;14.80;99.90
7000;DHT22;3540;53.242;10.408;2023-07-02T04:01:00;14.90;99.90
7000;DHT22;3540;53.242;10.408;2023-07-02T04:03:26;14.90;99.90
7000;DHT22;3540;53.242;10.408;2023-07-02T04:05:52;15.00;99.90
7000;DHT22;3540;53.242;10.408;2023-07-02T04:08:18;15.00;99.90
7000;DHT22;3540;53.242;10.408;2023-07-02T04:10:46;15.00;99.90
7000;DHT22;3540;53.242;10.408;2023-07-02T04:13:12;15.00;99.90
7000;DHT22;3540;53.242;10.408;2023-07-02T04:15:37;15.00;99.90
7000;DHT22;3540;53.242;10.408;2023-07-02T04:18:03;15.00;99.90
7000;DHT22;3540;53.242;10.408;2023-07-02T04:20:28;15.00;99.90
7000;DHT22;3540;53.242;10.408;2023-07-02T04:22:55;15.00;99.90
7000;DHT22;3540;53.242;10.408;2023-07-02T04:25:21;15.00;99.90
7000;DHT22;3540;53.242;10.408;2023-07-02T04:27:46;15.10;99.90
7000;DHT22;3540;53.242;10.408;2023-07-02T04:30:12;15.20;99.90
7000;DHT22;3540;53.242;10.408;2023-07-02T04:32:40;15.20;99.90
7000;DHT22;3540;53.242;10.408;2023-07-02T04:35:09;15.20;99.90
7000;DHT22;3540;53.242;10.408;2023-07-02T04:37:35;15.20;99.90
7000;DHT22;3540;53.242;10.408;2023-07-02T04:40:01;15.20;99.90
7000;DHT22;3540;53.242;10.408;2023-07-02T04:42:29;15.20;99.90
7000;DHT22;3540;53.242;10.408;2023-07-02T04:44:57;15.20;99.90
7000;DHT22;3540;53.242;10.408;2023-07-02T04:47:28;15.30;99.90
7000;DHT22;3540;53.242;10.408;2023-07-02T04:49:54;15.30;99.90
7000;DHT22;3540;53.242;10.408;2023-07-02T04:52:19;15.30;99.90
7000;DHT22;3540;53.242;10.408;2023-07-02T04:54:45;15.30;99.90
7000;DHT22;3540;53.242;10.408;2023-07-02T04:57:10;15.30;99.90
7000;DHT22;3540;53.242;10.408;2023-07-02T04:59:37;15.40;99.90
7000;DHT22;3540;53.242;10.408;2023-07-02T05:02:03;15.40;99.90
7000;DHT22;3540;53.242;10.408;2023-07-02T05:04:28;15.50;99.90
7000;DHT22;3540;53.242;10.408;2023-07-02T05:06:54;15.50;99.90
7000;DHT22;3540;53.242;10.408;2023-07-02T05:09:20;15.60;99.90
7000;DHT22;3540;53.242;10.408;2023-07-02T05:11:45;15.60;99.90
7000;DHT22;3540;53.242;10.408;2023-07-02T05:14:11;15.60;99.90
7000;DHT22;3540;53.242;10.408;2023-07-02T05:16:37;15.70;99.90
7000;DHT22;3540;53.242;10.408;2023-07-02T05:19:03;15.80;99.90
7000;DHT22;3540;53.242;10.408;2023-07-02T05:21:28;15.70;99.90
7000;DHT22;3540;53.242;10.408;2023-07-02T05:23:54;15.60;99.90
7000;DHT22;3540;53.242;10.408;2023-07-02T05:26:19;15.60;99.90
7000;DHT22;3540;53.242;10.408;2023-07-02T05:28:45;15.60;99.90
7000;DHT22;3540;53.242;10.408;2023-07-02T05:31:11;15.60;99.90
7000;DHT22;3540;53.242;10.408;2023-07-02T05:33:38;15.60;99.90
7000;DHT22;3540;53.242;10.408;2023-07-02T05:36:03;15.60;99.90
7000;DHT22;3540;53.242;10.408;2023-07-02T05:38:29;15.70;99.90
7000;DHT22;3540;53.242;10.408;2023-07-02T05:40:54;15.70;99.90
7000;DHT22;3540;53.242;10.408;2023-07-02T05:43:20;15.80;99.90
7000;DHT22;3540;53.242;10.408;2023-07-02T05:45:46;15.80;99.90
7000;DHT22;3540;53.242;10.408;2023-07-02T05:48:11;15.90;99.90
7000;DHT22;3540;53.242;10.408;2023-07-02T05:50:37;15.90;99.90
7000;DHT22;3540;53.242;10.408;2023-07-02T05:53:03;16.00;99.90
7000;DHT22;3540;53.242;10.408;2023-07-02T05:55:28;16.00;99.90
7000;DHT22;3540;53.242;10.408;2023-07-02T05:57:54;16.00;99.90
7000;DHT22;3540;53.242;10.408;2023-07-02T06:00:20;16.10;99.90
7000;DHT22;3540;53.242;10.408;2023-07-02T06:02:48;16.20;99.90
7000;DHT22;3540;53.242;10.408;2023-07-02T06:05:13;16.20;99.90
7000;DHT22;3540;53.242;10.408;2023-07-02T06:07:39;16.20;99.90
7000;DHT22;3540;53.242;10.408;2023-07-02T06:10:05;16.30;99.90
7000;DHT22;3540;53.242;10.408;2023-07-02T06:12:31;16.30;99.90
7000;DHT22;3540;53.242;10.408;2023-07-02T06:14:56;16.40;99.90
7000;DHT22;3540;53.242;10.408;2023-07-02T06:17:22;16.50;99.90
7000;DHT22;3540;53.242;10.408;2023-07-02T06:19:48;16.50;99.90
7000;DHT22;3540;53.242;10.408;2023-07-02T06:22:14;16.50;99.90
7000;DHT22;3540;53.242;10.408;2023-07-02T06:24:39;16.50;99.90
7000;DHT22;3540;53.242;10.408;2023-07-02T06:27:05;16.60;99.90
7000;DHT22;3540;53.242;10.408;2023-07-02T06:29:30;16.70;99.90
7000;DHT22;3540;53.242;10.408;2023-07-02T06:31:56;16.70;99.90
7000;DHT22;3540;53.242;10.408;2023-07-02T06:34:22;16.80;99.90
7000;DHT22;3540;53.242;10.408;2023-07-02T06:36:48;16.80;99.90
7000;DHT22;3540;53.242;10.408;2023-07-02T06:39:13;16.80;99.90
7000;DHT22;3540;53.242;10.408;2023-07-02T06:41:39;16.80;99.90
7000;DHT22;3540;53.242;10.408;2023-07-02T06:44:05;16.90;99.90
7000;DHT22;3540;53.242;10.408;2023-07-02T06:46:30;17.00;99.90
7000;DHT22;3540;53.242;10.408;2023-07-02T06:48:56;17.00;99.90
7000;DHT22;3540;53.242;10.408;2023-07-02T06:51:22;17.00;99.90
7000;DHT22;3540;53.242;10.408;2023-07-02T06:53:48;17.10;99.90
7000;DHT22;3540;53.242;10.408;2023-07-02T06:56:14;17.20;99.90
7000;DHT22;3540;53.242;10.408;2023-07-02T06:58:43;17.20;99.90
7000;DHT22;3540;53.242;10.408;2023-07-02T07:01:09;17.30;99.90
7000;DHT22;3540;53.242;10.408;2023-07-02T07:03:35;17.40;99.90
7000;DHT22;3540;53.242;10.408;2023-07-02T07:06:01;17.50;99.90
7000;DHT22;3540;53.242;10.408;2023-07-02T07:08:26;17.40;99.90
7000;DHT22;3540;53.242;10.408;2023-07-02T07:10:52;17.40;99.90
7000;DHT22;3540;53.242;10.408;2023-07-02T07:13:18;17.40;99.90
7000;DHT22;3540;53.242;10.408;2023-07-02T07:15:43;17.50;99.90
7000;DHT22;3540;53.242;10.408;2023-07-02T07:18:09;17.60;99.90
7000;DHT22;3540;53.242;10.408;2023-07-02T07:20:36;17.50;99.90
7000;DHT22;3540;53.242;10.408;2023-07-02T07:23:02;17.50;99.90
7000;DHT22;3540;53.242;10.408;2023-07-02T07:25:29;17.50;99.90
7000;DHT22;3540;53.242;10.408;2023-07-02T07:27:54;17.70;99.90
7000;DHT22;3540;53.242;10.408;2023-07-02T07:30:21;17.90;99.90
7000;DHT22;3540;53.242;10.408;2023-07-02T07:32:53;17.90;99.90
7000;DHT22;3540;53.242;10.408;2023-07-02T07:35:19;18.00;99.90
7000;DHT22;3540;53.242;10.408;2023-07-02T07:37:45;18.10;99.90
7000;DHT22;3540;53.242;10.408;2023-07-02T07:40:12;18.20;99.90
7000;DHT22;3540;53.242;10.408;2023-07-02T07:42:37;18.20;99.90
7000;DHT22;3540;53.242;10.408;2023-07-02T07:45:04;18.10;99.90
7000;DHT22;3540;53.242;10.408;2023-07-02T07:47:29;18.20;99.90
7000;DHT22;3540;53.242;10.408;2023-07-02T07:49:55;18.20;99.90
7000;DHT22;3540;53.242;10.408;2023-07-02T07:52:21;18.40;99.90
7000;DHT22;3540;53.242;10.408;2023-07-02T07:54:46;18.50;99.90
7000;DHT22;3540;53.242;10.408;2023-07-02T07:57:12;18.60;99.90
7000;DHT22;3540;53.242;10.408;2023-07-02T07:59:38;18.60;99.90
7000;DHT22;3540;53.242;10.408;2023-07-02T08:02:04;18.70;99.90
7000;DHT22;3540;53.242;10.408;2023-07-02T08:04:29;18.70;99.90
7000;DHT22;3540;53.242;10.408;2023-07-02T08:06:55;18.60;99.90
7000;DHT22;3540;53.242;10.408;2023-07-02T08:09:24;18.50;99.90
7000;DHT22;3540;53.242;10.408;2023-07-02T08:11:50;18.30;99.90
7000;DHT22;3540;53.242;10.408;2023-07-02T08:14:16;18.30;99.90
7000;DHT22;3540;53.242;10.408;2023-07-02T08:16:43;18.10;99.90
7000;DHT22;3540;53.242;10.408;2023-07-02T08:19:09;18.10;99.90
7000;DHT22;3540;53.242;10.408;2023-07-02T08:21:35;18.20;99.90
7000;DHT22;3540;53.242;10.408;2023-07-02T08:24:00;18.20;99.90
7000;DHT22;3540;53.242;10.408;2023-07-02T08:26:26;18.10;99.90
7000;DHT22;3540;53.242;10.408;2023-07-02T08:28:52;18.10;99.90
7000;DHT22;3540;53.242;10.408;2023-07-02T08:31:17;18.10;99.90
7000;DHT22;3540;53.242;10.408;2023-07-02T08:33:43;18.20;99.90
7000;DHT22;3540;53.242;10.408;2023-07-02T08:36:09;18.40;99.90
7000;DHT22;3540;53.242;10.408;2023-07-02T08:38:34;18.50;99.90
7000;DHT22;3540;53.242;10.408;2023-07-02T08:41:00;18.60;99.90
7000;DHT22;3540;53.242;10.408;2023-07-02T08:43:27;18.70;99.90
7000;DHT22;3540;53.242;10.408;2023-07-02T08:45:54;18.90;99.90
7000;DHT22;3540;53.242;10.408;2023-07-02T08:48:20;19.00;99.90
7000;DHT22;3540;53.242;10.408;2023-07-02T08:50:49;19.00;99.90
7000;DHT22;3540;53.242;10.408;2023-07-02T08:53:15;18.90;99.90
7000;DHT22;3540;53.242;10.408;2023-07-02T08:55:41;19.00;99.90
7000;DHT22;3540;53.242;10.408;2023-07-02T08:58:06;19.30;99.90
7000;DHT22;3540;53.242;10.408;2023-07-02T09:00:32;19.40;99.90
7000;DHT22;3540;53.242;10.408;2023-07-02T09:03:15;19.50;99.90
7000;DHT22;3540;53.242;10.408;2023-07-02T09:05:51;19.40;99.90
7000;DHT22;3540;53.242;10.408;2023-07-02T09:08:27;19.50;99.90
7000;DHT22;3540;53.242;10.408;2023-07-02T09:10:54;19.70;99.90
7000;DHT22;3540;53.242;10.408;2023-07-02T09:13:19;19.70;99.90
7000;DHT22;3540;53.242;10.408;2023-07-02T09:15:45;19.90;99.90
7000;DHT22;3540;53.242;10.408;2023-07-02T09:18:29;19.60;99.90
7000;DHT22;3540;53.242;10.408;2023-07-02T09:20:55;19.40;99.90
7000;DHT22;3540;53.242;10.408;2023-07-02T09:23:21;19.60;99.90
7000;DHT22;3540;53.242;10.408;2023-07-02T09:25:46;19.70;99.90
7000;DHT22;3540;53.242;10.408;2023-07-02T09:28:22;19.80;99.90
7000;DHT22;3540;53.242;10.408;2023-07-02T09:30:55;19.90;99.90
7000;DHT22;3540;53.242;10.408;2023-07-02T09:33:27;19.90;99.90
7000;DHT22;3540;53.242;10.408;2023-07-02T09:35:52;19.90;99.90
7000;DHT22;3540;53.242;10.408;2023-07-02T09:38:21;19.70;99.90
7000;DHT22;3540;53.242;10.408;2023-07-02T09:40:51;20.00;99.90
7000;DHT22;3540;53.242;10.408;2023-07-02T09:43:19;20.10;99.90
7000;DHT22;3540;53.242;10.408;2023-07-02T09:45:46;20.30;99.90
7000;DHT22;3540;53.242;10.408;2023-07-02T09:48:13;20.20;99.90
7000;DHT22;3540;53.242;10.408;2023-07-02T09:50:44;20.30;99.90
7000;DHT22;3540;53.242;10.408;2023-07-02T09:53:10;20.30;99.90
7000;DHT22;3540;53.242;10.408;2023-07-02T09:55:37;20.10;99.90
7000;DHT22;3540;53.242;10.408;2023-07-02T09:58:03;20.10;99.90
7000;DHT22;3540;53.242;10.408;2023-07-02T10:00:29;19.90;99.90
7000;DHT22;3540;53.242;10.408;2023-07-02T10:02:55;19.70;99.90
7000;DHT22;3540;53.242;10.408;2023-07-02T10:05:29;19.70;99.90
7000;DHT22;3540;53.242;10.408;2023-07-02T10:07:56;19.80;99.90
7000;DHT22;3540;53.242;10.408;2023-07-02T10:10:40;19.70;99.90
7000;DHT22;3540;53.242;10.408;2023-07-02T10:13:06;19.60;99.90
7000;DHT22;3540;53.242;10.408;2023-07-02T10:15:32;19.80;99.90
7000;DHT22;3540;53.242;10.408;2023-07-02T10:18:03;20.20;99.90
7000;DHT22;3540;53.242;10.408;2023-07-02T10:20:33;20.50;99.90
7000;DHT22;3540;53.242;10.408;2023-07-02T10:22:59;20.50;99.90
7000;DHT22;3540;53.242;10.408;2023-07-02T10:27:52;20.20;99.90
7000;DHT22;3540;53.242;10.408;2023-07-02T10:30:18;20.10;99.90
7000;DHT22;3540;53.242;10.408;2023-07-02T10:32:43;20.30;99.90
7000;DHT22;3540;53.242;10.408;2023-07-02T10:35:18;20.20;99.90
7000;DHT22;3540;53.242;10.408;2023-07-02T10:37:44;20.10;99.90
7000;DHT22;3540;53.242;10.408;2023-07-02T10:40:11;20.30;99.90
7000;DHT22;3540;53.242;10.408;2023-07-02T10:42:51;20.70;99.90
7000;DHT22;3540;53.242;10.408;2023-07-02T10:45:17;21.00;99.90
7000;DHT22;3540;53.242;10.408;2023-07-02T10:47:43;20.60;99.90
7000;DHT22;3540;53.242;10.408;2023-07-02T10:50:15;20.50;99.90
7000;DHT22;3540;53.242;10.408;2023-07-02T10:52:41;20.50;99.90
7000;DHT22;3540;53.242;10.408;2023-07-02T10:55:07;20.50;99.90
7000;DHT22;3540;53.242;10.408;2023-07-02T10:57:33;20.40;99.90
7000;DHT22;3540;53.242;10.408;2023-07-02T11:00:06;20.20;99.90
7000;DHT22;3540;53.242;10.408;2023-07-02T11:02:40;20.00;99.90
7000;DHT22;3540;53.242;10.408;2023-07-02T11:05:06;19.80;99.90
7000;DHT22;3540;53.242;10.408;2023-07-02T11:07:34;19.50;99.90
7000;DHT22;3540;53.242;10.408;2023-07-02T11:10:00;19.70;99.90
7000;DHT22;3540;53.242;10.408;2023-07-02T11:12:30;19.70;99.90
7000;DHT22;3540;53.242;10.408;2023-07-02T11:15:10;19.70;99.90
7000;DHT22;3540;53.242;10.408;2023-07-02T11:17:36;19.80;99.90
7000;DHT22;3540;53.242;10.408;2023-07-02T11:20:03;20.00;99.90
7000;DHT22;3540;53.242;10.408;2023-07-02T11:22:31;20.10;99.90
7000;DHT22;3540;53.242;10.408;2023-07-02T11:25:11;20.40;99.90
7000;DHT22;3540;53.242;10.408;2023-07-02T11:27:38;20.60;99.90
7000;DHT22;3540;53.242;10.408;2023-07-02T11:30:06;20.60;99.90
7000;DHT22;3540;53.242;10.408;2023-07-02T11:32:46;20.80;99.90
7000;DHT22;3540;53.242;10.408;2023-07-02T11:35:12;20.80;99.90
7000;DHT22;3540;53.242;10.408;2023-07-02T11:37:38;20.90;99.90
7000;DHT22;3540;53.242;10.408;2023-07-02T11:40:04;21.10;99.90
7000;DHT22;3540;53.242;10.408;2023-07-02T11:42:31;21.20;99.90
7000;DHT22;3540;53.242;10.408;2023-07-02T11:44:57;21.10;99.90
7000;DHT22;3540;53.242;10.408;2023-07-02T11:47:22;21.40;99.90
7000;DHT22;3540;53.242;10.408;2023-07-02T11:49:48;21.60;99.90
7000;DHT22;3540;53.242;10.408;2023-07-02T11:52:13;21.90;99.90
7000;DHT22;3540;53.242;10.408;2023-07-02T11:54:40;22.10;99.90
7000;DHT22;3540;53.242;10.408;2023-07-02T11:57:06;21.70;99.90
7000;DHT22;3540;53.242;10.408;2023-07-02T11:59:32;21.30;99.90
7000;DHT22;3540;53.242;10.408;2023-07-02T12:01:57;21.10;99.90
7000;DHT22;3540;53.242;10.408;2023-07-02T12:04:23;21.40;99.90
7000;DHT22;3540;53.242;10.408;2023-07-02T12:06:49;21.70;99.90
7000;DHT22;3540;53.242;10.408;2023-07-02T12:09:15;21.80;99.90
7000;DHT22;3540;53.242;10.408;2023-07-02T12:11:41;21.50;99.90
7000;DHT22;3540;53.242;10.408;2023-07-02T12:14:07;21.00;99.90
7000;DHT22;3540;53.242;10.408;2023-07-02T12:16:32;20.80;99.90
7000;DHT22;3540;53.242;10.408;2023-07-02T12:18:58;20.80;99.90
7000;DHT22;3540;53.242;10.408;2023-07-02T12:21:24;20.70;99.90
7000;DHT22;3540;53.242;10.408;2023-07-02T12:23:49;20.40;99.90
7000;DHT22;3540;53.242;10.408;2023-07-02T12:26:16;20.50;99.90
7000;DHT22;3540;53.242;10.408;2023-07-02T12:28:42;20.60;99.90
7000;DHT22;3540;53.242;10.408;2023-07-02T12:31:08;21.00;99.90
7000;DHT22;3540;53.242;10.408;2023-07-02T12:33:33;21.10;99.90
7000;DHT22;3540;53.242;10.408;2023-07-02T12:35:59;20.90;99.90
7000;DHT22;3540;53.242;10.408;2023-07-02T12:38:25;20.80;99.90
7000;DHT22;3540;53.242;10.408;2023-07-02T12:40:50;20.80;99.90
7000;DHT22;3540;53.242;10.408;2023-07-02T12:43:16;21.10;99.90
7000;DHT22;3540;53.242;10.408;2023-07-02T12:45:42;21.50;99.90
7000;DHT22;3540;53.242;10.408;2023-07-02T12:48:07;21.60;99.90
7000;DHT22;3540;53.242;10.408;2023-07-02T12:50:36;21.90;99.90
7000;DHT22;3540;53.242;10.408;2023-07-02T12:53:02;21.70;99.90
7000;DHT22;3540;53.242;10.408;2023-07-02T12:55:28;21.70;99.90
7000;DHT22;3540;53.242;10.408;2023-07-02T12:57:54;21.60;99.90
7000;DHT22;3540;53.242;10.408;2023-07-02T13:00:19;21.30;99.90
7000;DHT22;3540;53.242;10.408;2023-07-02T13:02:46;21.40;99.90
7000;DHT22;3540;53.242;10.408;2023-07-02T13:05:12;21.60;99.90
7000;DHT22;3540;53.242;10.408;2023-07-02T13:07:39;21.50;99.90
7000;DHT22;3540;53.242;10.408;2023-07-02T13:10:05;21.90;99.90
7000;DHT22;3540;53.242;10.408;2023-07-02T13:12:31;21.80;99.90
7000;DHT22;3540;53.242;10.408;2023-07-02T13:14:58;21.40;99.90
7000;DHT22;3540;53.242;10.408;2023-07-02T13:17:24;21.20;99.90
7000;DHT22;3540;53.242;10.408;2023-07-02T13:19:50;21.00;99.90
7000;DHT22;3540;53.242;10.408;2023-07-02T13:22:15;21.10;99.90
7000;DHT22;3540;53.242;10.408;2023-07-02T13:24:41;21.00;99.90
7000;DHT22;3540;53.242;10.408;2023-07-02T13:27:12;20.80;99.90
7000;DHT22;3540;53.242;10.408;2023-07-02T13:29:39;20.60;99.90
7000;DHT22;3540;53.242;10.408;2023-07-02T13:32:05;20.40;99.90
7000;DHT22;3540;53.242;10.408;2023-07-02T13:34:31;20.50;99.90
7000;DHT22;3540;53.242;10.408;2023-07-02T13:36:57;21.00;99.90
7000;DHT22;3540;53.242;10.408;2023-07-02T13:39:22;21.40;99.90
7000;DHT22;3540;53.242;10.408;2023-07-02T13:41:49;21.60;99.90
7000;DHT22;3540;53.242;10.408;2023-07-02T13:44:16;21.60;99.90
7000;DHT22;3540;53.242;10.408;2023-07-02T13:46:43;21.60;99.90
7000;DHT22;3540;53.242;10.408;2023-07-02T13:49:10;21.60;99.90
7000;DHT22;3540;53.242;10.408;2023-07-02T13:51:36;21.90;99.90
7000;DHT22;3540;53.242;10.408;2023-07-02T13:54:02;21.80;99.90
7000;DHT22;3540;53.242;10.408;2023-07-02T13:56:28;21.70;99.90
7000;DHT22;3540;53.242;10.408;2023-07-02T14:01:23;21.30;99.90
7000;DHT22;3540;53.242;10.408;2023-07-02T14:03:49;21.10;99.90
7000;DHT22;3540;53.242;10.408;2023-07-02T14:06:16;21.40;99.90
7000;DHT22;3540;53.242;10.408;2023-07-02T14:08:42;21.60;99.90
7000;DHT22;3540;53.242;10.408;2023-07-02T14:11:07;21.50;99.90
7000;DHT22;3540;53.242;10.408;2023-07-02T14:13:33;21.40;99.90
7000;DHT22;3540;53.242;10.408;2023-07-02T14:15:59;21.20;99.90
7000;DHT22;3540;53.242;10.408;2023-07-02T14:18:25;21.40;99.90
7000;DHT22;3540;53.242;10.408;2023-07-02T14:20:51;22.00;99.90
7000;DHT22;3540;53.242;10.408;2023-07-02T14:23:17;22.30;99.90
7000;DHT22;3540;53.242;10.408;2023-07-02T14:25:42;22.20;99.90
7000;DHT22;3540;53.242;10.408;2023-07-02T14:28:08;21.80;99.90
7000;DHT22;3540;53.242;10.408;2023-07-02T14:30:34;21.70;99.90
7000;DHT22;3540;53.242;10.408;2023-07-02T14:33:00;21.60;99.90
7000;DHT22;3540;53.242;10.408;2023-07-02T14:35:26;21.80;99.90
7000;DHT22;3540;53.242;10.408;2023-07-02T14:37:53;22.00;99.90
7000;DHT22;3540;53.242;10.408;2023-07-02T14:40:19;22.00;99.90
7000;DHT22;3540;53.242;10.408;2023-07-02T14:42:45;21.80;99.90
7000;DHT22;3540;53.242;10.408;2023-07-02T14:45:11;21.10;99.90
7000;DHT22;3540;53.242;10.408;2023-07-02T14:47:37;20.80;99.90
7000;DHT22;3540;53.242;10.408;2023-07-02T14:50:03;20.90;99.90
7000;DHT22;3540;53.242;10.408;2023-07-02T14:52:29;21.30;99.90
7000;DHT22;3540;53.242;10.408;2023-07-02T14:54:55;21.20;99.90
7000;DHT22;3540;53.242;10.408;2023-07-02T14:57:21;21.30;99.90
7000;DHT22;3540;53.242;10.408;2023-07-02T14:59:48;21.10;99.90
7000;DHT22;3540;53.242;10.408;2023-07-02T15:02:15;20.90;99.90
7000;DHT22;3540;53.242;10.408;2023-07-02T15:04:41;21.10;99.90
7000;DHT22;3540;53.242;10.408;2023-07-02T15:07:07;21.00;99.90
7000;DHT22;3540;53.242;10.408;2023-07-02T15:09:33;20.90;99.90
7000;DHT22;3540;53.242;10.408;2023-07-02T15:11:58;21.20;99.90
7000;DHT22;3540;53.242;10.408;2023-07-02T15:14:24;21.80;99.90
7000;DHT22;3540;53.242;10.408;2023-07-02T15:16:50;21.60;99.90
7000;DHT22;3540;53.242;10.408;2023-07-02T15:19:17;21.20;99.90
7000;DHT22;3540;53.242;10.408;2023-07-02T15:21:43;20.90;99.90
7000;DHT22;3540;53.242;10.408;2023-07-02T15:24:09;20.70;99.90
7000;DHT22;3540;53.242;10.408;2023-07-02T15:26:37;20.60;99.90
7000;DHT22;3540;53.242;10.408;2023-07-02T15:29:03;20.80;99.90
7000;DHT22;3540;53.242;10.408;2023-07-02T15:31:29;20.80;99.90
7000;DHT22;3540;53.242;10.408;2023-07-02T15:33:54;20.50;99.90
7000;DHT22;3540;53.242;10.408;2023-07-02T15:36:20;20.40;99.90
7000;DHT22;3540;53.242;10.408;2023-07-02T15:38:48;20.30;99.90
7000;DHT22;3540;53.242;10.408;2023-07-02T15:41:16;20.40;99.90
7000;DHT22;3540;53.242;10.408;2023-07-02T15:43:44;20.70;99.90
7000;DHT22;3540;53.242;10.408;2023-07-02T15:46:12;20.80;99.90
7000;DHT22;3540;53.242;10.408;2023-07-02T15:48:38;20.70;99.90